sensor_id;sensor_type;location;lat;lon;timestamp;P1;durP1;ratioP1;P2;durP2;ratioP2
12024;SDS011;6073;53.230;10.444;2023-02-24T00:00:06;9.32;;;2.40;;
12024;SDS011;6073;53.230;10.444;2023-02-24T00:02:52;11.05;;;2.58;;
12024;SDS011;6073;53.230;10.444;2023-02-24T00:05:17;7.80;;;2.22;;
12024;SDS011;6073;53.230;10.444;2023-02-24T00:07:43;8.18;;;2.20;;
12024;SDS011;6073;53.230;10.444;2023-02-24T00:10:09;11.70;;;2.55;;
12024;SDS011;6073;53.230;10.444;2023-02-24T00:12:35;10.68;;;2.05;;
12024;SDS011;6073;53.230;10.444;2023-02-24T00:15:01;11.25;;;2.50;;
12024;SDS011;6073;53.230;10.444;2023-02-24T00:17:28;9.95;;;2.17;;
12024;SDS011;6073;53.230;10.444;2023-02-24T00:19:54;5.50;;;1.75;;
12024;SDS011;6073;53.230;10.444;2023-02-24T00:22:20;7.25;;;1.52;;
12024;SDS011;6073;53.230;10.444;2023-02-24T00:24:46;8.07;;;2.53;;
12024;SDS011;6073;53.230;10.444;2023-02-24T00:27:11;6.88;;;1.90;;
12024;SDS011;6073;53.230;10.444;2023-02-24T00:29:37;5.28;;;1.75;;
12024;SDS011;6073;53.230;10.444;2023-02-24T00:32:04;13.98;;;2.83;;
12024;SDS011;6073;53.230;10.444;2023-02-24T00:34:33;9.88;;;3.60;;
12024;SDS011;6073;53.230;10.444;2023-02-24T00:37:00;4.55;;;1.85;;
12024;SDS011;6073;53.230;10.444;2023-02-24T00:39:26;8.32;;;1.95;;
12024;SDS011;6073;53.230;10.444;2023-02-24T00:41:58;4.20;;;2.20;;
12024;SDS011;6073;53.230;10.444;2023-02-24T00:44:37;4.53;;;1.92;;
12024;SDS011;6073;53.230;10.444;2023-02-24T00:47:06;8.35;;;2.15;;
12024;SDS011;6073;53.230;10.444;2023-02-24T00:49:33;9.45;;;3.15;;
12024;SDS011;6073;53.230;10.444;2023-02-24T00:52:00;6.45;;;2.00;;
12024;SDS011;6073;53.230;10.444;2023-02-24T00:54:28;6.13;;;2.10;;
12024;SDS011;6073;53.230;10.444;2023-02-24T00:56:54;7.50;;;2.20;;
12024;SDS011;6073;53.230;10.444;2023-02-24T00:59:21;10.10;;;2.20;;
12024;SDS011;6073;53.230;10.444;2023-02-24T01:01:48;7.50;;;1.80;;
12024;SDS011;6073;53.230;10.444;2023-02-24T01:04:15;7.00;;;2.17;;
12024;SDS011;6073;53.230;10.444;2023-02-24T01:06:43;8.20;;;2.88;;
12024;SDS011;6073;53.230;10.444;2023-02-24T01:09:12;6.90;;;1.95;;
12024;SDS011;6073;53.230;10.444;2023-02-24T01:11:40;7.32;;;2.40;;
12024;SDS011;6073;53.230;10.444;2023-02-24T01:14:26;9.85;;;2.17;;
12024;SDS011;6073;53.230;10.444;2023-02-24T01:16:55;13.07;;;2.60;;
12024;SDS011;6073;53.230;10.444;2023-02-24T01:19:25;6.57;;;2.25;;
12024;SDS011;6073;53.230;10.444;2023-02-24T01:21:59;6.50;;;1.98;;
12024;SDS011;6073;53.230;10.444;2023-02-24T01:24:59;7.78;;;1.77;;
12024;SDS011;6073;53.230;10.444;2023-02-24T01:27:18;5.63;;;2.10;;
12024;SDS011;6073;53.230;10.444;2023-02-24T01:29:44;10.40;;;2.47;;
12024;SDS011;6073;53.230;10.444;2023-02-24T01:32:14;5.43;;;2.20;;
12024;SDS011;6073;53.230;10.444;2023-02-24T01:34:43;7.40;;;2.10;;
12024;SDS011;6073;53.230;10.444;2023-02-24T01:37:09;4.95;;;1.98;;
12024;SDS011;6073;53.230;10.444;2023-02-24T01:39:34;4.93;;;2.00;;
12024;SDS011;6073;53.230;10.444;2023-02-24T01:42:00;9.38;;;2.60;;
12024;SDS011;6073;53.230;10.444;2023-02-24T01:46:56;4.40;;;1.73;;
12024;SDS011;6073;53.230;10.444;2023-02-24T01:51:55;5.50;;;1.75;;
12024;SDS011;6073;53.230;10.444;2023-02-24T01:54:27;6.20;;;1.75;;
12024;SDS011;6073;53.230;10.444;2023-02-24T01:56:57;6.70;;;2.30;;
12024;SDS011;6073;53.230;10.444;2023-02-24T01:59:24;12.27;;;2.75;;
12024;SDS011;6073;53.230;10.444;2023-02-24T02:01:54;9.20;;;2.30;;
12024;SDS011;6073;53.230;10.444;2023-02-24T02:07:18;3.38;;;1.80;;
12024;SDS011;6073;53.230;10.444;2023-02-24T02:09:46;3.65;;;1.80;;
12024;SDS011;6073;53.230;10.444;2023-02-24T02:12:13;6.25;;;2.15;;
12024;SDS011;6073;53.230;10.444;2023-02-24T02:14:43;6.18;;;2.03;;
12024;SDS011;6073;53.230;10.444;2023-02-24T02:19:45;6.18;;;1.80;;
12024;SDS011;6073;53.230;10.444;2023-02-24T02:22:45;11.02;;;2.30;;
12024;SDS011;6073;53.230;10.444;2023-02-24T02:30:43;5.28;;;1.95;;
12024;SDS011;6073;53.230;10.444;2023-02-24T02:42:37;6.40;;;2.40;;
12024;SDS011;6073;53.230;10.444;2023-02-24T02:45:12;6.75;;;1.90;;
12024;SDS011;6073;53.230;10.444;2023-02-24T02:50:40;5.07;;;1.55;;
12024;SDS011;6073;53.230;10.444;2023-02-24T02:53:28;4.82;;;1.90;;
12024;SDS011;6073;53.230;10.444;2023-02-24T02:56:07;8.48;;;2.00;;
12024;SDS011;6073;53.230;10.444;2023-02-24T02:58:44;3.78;;;1.65;;
12024;SDS011;6073;53.230;10.444;2023-02-24T03:01:17;6.05;;;1.50;;
12024;SDS011;6073;53.230;10.444;2023-02-24T03:03:46;4.45;;;1.63;;
12024;SDS011;6073;53.230;10.444;2023-02-24T03:06:18;3.70;;;1.65;;
12024;SDS011;6073;53.230;10.444;2023-02-24T03:09:09;5.10;;;2.47;;
12024;SDS011;6073;53.230;10.444;2023-02-24T03:11:42;5.40;;;1.77;;
12024;SDS011;6073;53.230;10.444;2023-02-24T03:14:13;4.55;;;1.67;;
12024;SDS011;6073;53.230;10.444;2023-02-24T03:16:42;5.60;;;1.70;;
12024;SDS011;6073;53.230;10.444;2023-02-24T03:19:10;12.10;;;2.15;;
12024;SDS011;6073;53.230;10.444;2023-02-24T03:21:39;4.18;;;1.23;;
12024;SDS011;6073;53.230;10.444;2023-02-24T03:24:10;7.25;;;2.17;;
12024;SDS011;6073;53.230;10.444;2023-02-24T03:29:08;8.02;;;1.88;;
12024;SDS011;6073;53.230;10.444;2023-02-24T03:31:44;4.28;;;1.85;;
12024;SDS011;6073;53.230;10.444;2023-02-24T03:34:13;6.30;;;1.65;;
12024;SDS011;6073;53.230;10.444;2023-02-24T03:36:42;4.80;;;1.80;;
12024;SDS011;6073;53.230;10.444;2023-02-24T03:39:09;5.80;;;1.50;;
12024;SDS011;6073;53.230;10.444;2023-02-24T03:44:39;5.45;;;1.77;;
12024;SDS011;6073;53.230;10.444;2023-02-24T03:47:05;3.92;;;1.63;;
12024;SDS011;6073;53.230;10.444;2023-02-24T03:49:33;6.90;;;1.60;;
12024;SDS011;6073;53.230;10.444;2023-02-24T03:57:53;8.10;;;2.42;;
12024;SDS011;6073;53.230;10.444;2023-02-24T04:00:32;6.40;;;1.40;;
12024;SDS011;6073;53.230;10.444;2023-02-24T04:08:34;7.00;;;1.55;;
12024;SDS011;6073;53.230;10.444;2023-02-24T04:11:27;7.60;;;1.83;;
12024;SDS011;6073;53.230;10.444;2023-02-24T04:14:00;7.18;;;2.05;;
12024;SDS011;6073;53.230;10.444;2023-02-24T04:16:27;2.85;;;1.77;;
12024;SDS011;6073;53.230;10.444;2023-02-24T04:19:01;5.35;;;1.63;;
12024;SDS011;6073;53.230;10.444;2023-02-24T04:21:30;4.93;;;1.75;;
12024;SDS011;6073;53.230;10.444;2023-02-24T04:24:01;3.60;;;1.27;;
12024;SDS011;6073;53.230;10.444;2023-02-24T04:26:32;5.55;;;1.73;;
12024;SDS011;6073;53.230;10.444;2023-02-24T04:29:04;4.65;;;1.60;;
12024;SDS011;6073;53.230;10.444;2023-02-24T04:31:30;3.67;;;1.50;;
12024;SDS011;6073;53.230;10.444;2023-02-24T04:33:58;3.08;;;1.30;;
12024;SDS011;6073;53.230;10.444;2023-02-24T04:36:24;3.83;;;1.40;;
12024;SDS011;6073;53.230;10.444;2023-02-24T04:38:49;3.78;;;1.05;;
12024;SDS011;6073;53.230;10.444;2023-02-24T04:41:16;6.25;;;1.60;;
12024;SDS011;6073;53.230;10.444;2023-02-24T04:43:45;8.55;;;1.85;;
12024;SDS011;6073;53.230;10.444;2023-02-24T04:46:15;6.50;;;1.60;;
12024;SDS011;6073;53.230;10.444;2023-02-24T04:48:41;8.38;;;1.80;;
12024;SDS011;6073;53.230;10.444;2023-02-24T04:51:06;6.90;;;2.70;;
12024;SDS011;6073;53.230;10.444;2023-02-24T04:53:32;6.57;;;2.05;;
12024;SDS011;6073;53.230;10.444;2023-02-24T04:56:01;8.38;;;1.80;;
12024;SDS011;6073;53.230;10.444;2023-02-24T04:58:33;4.35;;;1.20;;
12024;SDS011;6073;53.230;10.444;2023-02-24T05:01:05;5.88;;;2.28;;
12024;SDS011;6073;53.230;10.444;2023-02-24T05:03:35;4.63;;;1.75;;
12024;SDS011;6073;53.230;10.444;2023-02-24T05:06:01;6.32;;;1.48;;
12024;SDS011;6073;53.230;10.444;2023-02-24T05:08:28;3.50;;;1.92;;
12024;SDS011;6073;53.230;10.444;2023-02-24T05:10:55;6.22;;;1.63;;
12024;SDS011;6073;53.230;10.444;2023-02-24T05:13:23;10.93;;;1.80;;
12024;SDS011;6073;53.230;10.444;2023-02-24T05:15:52;6.32;;;1.60;;
12024;SDS011;6073;53.230;10.444;2023-02-24T05:18:19;6.18;;;1.95;;
12024;SDS011;6073;53.230;10.444;2023-02-24T05:20:46;3.78;;;1.73;;
12024;SDS011;6073;53.230;10.444;2023-02-24T05:23:34;4.00;;;1.85;;
12024;SDS011;6073;53.230;10.444;2023-02-24T05:26:08;6.20;;;1.70;;
12024;SDS011;6073;53.230;10.444;2023-02-24T05:28:36;5.60;;;2.08;;
12024;SDS011;6073;53.230;10.444;2023-02-24T05:31:09;4.75;;;1.92;;
12024;SDS011;6073;53.230;10.444;2023-02-24T05:33:39;4.57;;;1.73;;
12024;SDS011;6073;53.230;10.444;2023-02-24T05:36:08;4.70;;;1.60;;
12024;SDS011;6073;53.230;10.444;2023-02-24T05:38:36;5.30;;;1.95;;
12024;SDS011;6073;53.230;10.444;2023-02-24T05:41:03;5.68;;;1.50;;
12024;SDS011;6073;53.230;10.444;2023-02-24T05:43:31;6.80;;;2.10;;
12024;SDS011;6073;53.230;10.444;2023-02-24T05:46:00;5.30;;;1.85;;
12024;SDS011;6073;53.230;10.444;2023-02-24T05:48:28;4.65;;;2.00;;
12024;SDS011;6073;53.230;10.444;2023-02-24T05:50:58;3.55;;;1.75;;
12024;SDS011;6073;53.230;10.444;2023-02-24T05:53:28;5.05;;;2.13;;
12024;SDS011;6073;53.230;10.444;2023-02-24T05:55:53;7.47;;;1.77;;
12024;SDS011;6073;53.230;10.444;2023-02-24T05:58:19;6.30;;;2.05;;
12024;SDS011;6073;53.230;10.444;2023-02-24T06:00:45;5.13;;;1.70;;
12024;SDS011;6073;53.230;10.444;2023-02-24T06:03:10;5.30;;;1.65;;
12024;SDS011;6073;53.230;10.444;2023-02-24T06:05:41;5.93;;;1.70;;
12024;SDS011;6073;53.230;10.444;2023-02-24T06:08:07;3.42;;;1.20;;
12024;SDS011;6073;53.230;10.444;2023-02-24T06:10:36;2.72;;;1.80;;
12024;SDS011;6073;53.230;10.444;2023-02-24T06:13:04;6.70;;;2.17;;
12024;SDS011;6073;53.230;10.444;2023-02-24T06:15:31;7.70;;;1.92;;
12024;SDS011;6073;53.230;10.444;2023-02-24T06:17:57;3.13;;;1.48;;
12024;SDS011;6073;53.230;10.444;2023-02-24T06:20:25;7.10;;;1.92;;
12024;SDS011;6073;53.230;10.444;2023-02-24T06:22:53;8.93;;;2.30;;
12024;SDS011;6073;53.230;10.444;2023-02-24T06:25:22;8.68;;;1.77;;
12024;SDS011;6073;53.230;10.444;2023-02-24T06:27:49;9.73;;;2.10;;
12024;SDS011;6073;53.230;10.444;2023-02-24T06:30:23;4.22;;;1.55;;
12024;SDS011;6073;53.230;10.444;2023-02-24T06:32:50;4.03;;;1.70;;
12024;SDS011;6073;53.230;10.444;2023-02-24T06:35:18;5.70;;;1.52;;
12024;SDS011;6073;53.230;10.444;2023-02-24T06:37:44;5.90;;;1.80;;
12024;SDS011;6073;53.230;10.444;2023-02-24T06:40:10;6.35;;;1.80;;
12024;SDS011;6073;53.230;10.444;2023-02-24T06:42:45;5.75;;;1.65;;
12024;SDS011;6073;53.230;10.444;2023-02-24T06:45:12;7.38;;;1.80;;
12024;SDS011;6073;53.230;10.444;2023-02-24T06:47:40;5.90;;;1.85;;
12024;SDS011;6073;53.230;10.444;2023-02-24T06:50:10;5.43;;;1.77;;
12024;SDS011;6073;53.230;10.444;2023-02-24T06:52:36;5.95;;;1.83;;
12024;SDS011;6073;53.230;10.444;2023-02-24T06:55:03;3.95;;;1.60;;
12024;SDS011;6073;53.230;10.444;2023-02-24T06:57:30;7.47;;;1.58;;
12024;SDS011;6073;53.230;10.444;2023-02-24T06:59:59;5.10;;;1.63;;
12024;SDS011;6073;53.230;10.444;2023-02-24T07:02:40;3.55;;;1.88;;
12024;SDS011;6073;53.230;10.444;2023-02-24T07:05:06;5.05;;;1.70;;
12024;SDS011;6073;53.230;10.444;2023-02-24T07:07:38;5.53;;;2.25;;
12024;SDS011;6073;53.230;10.444;2023-02-24T07:10:09;5.18;;;1.60;;
12024;SDS011;6073;53.230;10.444;2023-02-24T07:12:37;3.53;;;1.75;;
12024;SDS011;6073;53.230;10.444;2023-02-24T07:15:03;3.15;;;1.52;;
12024;SDS011;6073;53.230;10.444;2023-02-24T07:17:29;5.03;;;1.85;;
12024;SDS011;6073;53.230;10.444;2023-02-24T07:19:54;3.47;;;1.58;;
12024;SDS011;6073;53.230;10.444;2023-02-24T07:22:21;6.05;;;1.50;;
12024;SDS011;6073;53.230;10.444;2023-02-24T07:24:49;6.40;;;2.55;;
12024;SDS011;6073;53.230;10.444;2023-02-24T07:27:15;7.90;;;1.83;;
12024;SDS011;6073;53.230;10.444;2023-02-24T07:29:47;2.90;;;1.77;;
12024;SDS011;6073;53.230;10.444;2023-02-24T07:32:14;3.70;;;2.00;;
12024;SDS011;6073;53.230;10.444;2023-02-24T07:34:40;7.25;;;1.85;;
12024;SDS011;6073;53.230;10.444;2023-02-24T07:37:06;8.38;;;2.15;;
12024;SDS011;6073;53.230;10.444;2023-02-24T07:39:33;6.43;;;2.05;;
12024;SDS011;6073;53.230;10.444;2023-02-24T07:41:58;8.35;;;2.20;;
12024;SDS011;6073;53.230;10.444;2023-02-24T07:44:24;3.75;;;2.05;;
12024;SDS011;6073;53.230;10.444;2023-02-24T07:46:50;9.15;;;2.72;;
12024;SDS011;6073;53.230;10.444;2023-02-24T07:49:17;4.80;;;2.15;;
12024;SDS011;6073;53.230;10.444;2023-02-24T07:51:45;4.82;;;2.42;;
12024;SDS011;6073;53.230;10.444;2023-02-24T07:54:16;6.35;;;2.78;;
12024;SDS011;6073;53.230;10.444;2023-02-24T07:56:43;7.18;;;2.75;;
12024;SDS011;6073;53.230;10.444;2023-02-24T07:59:20;6.50;;;3.20;;
12024;SDS011;6073;53.230;10.444;2023-02-24T08:01:49;5.55;;;3.22;;
12024;SDS011;6073;53.230;10.444;2023-02-24T08:04:19;5.75;;;3.35;;
12024;SDS011;6073;53.230;10.444;2023-02-24T08:06:47;8.88;;;3.30;;
12024;SDS011;6073;53.230;10.444;2023-02-24T08:09:20;8.23;;;3.47;;
12024;SDS011;6073;53.230;10.444;2023-02-24T08:12:08;7.38;;;3.25;;
12024;SDS011;6073;53.230;10.444;2023-02-24T08:14:45;7.30;;;3.95;;
12024;SDS011;6073;53.230;10.444;2023-02-24T08:17:15;7.93;;;4.00;;
12024;SDS011;6073;53.230;10.444;2023-02-24T08:19:46;7.55;;;3.85;;
12024;SDS011;6073;53.230;10.444;2023-02-24T08:22:14;6.45;;;4.72;;
12024;SDS011;6073;53.230;10.444;2023-02-24T08:24:44;7.90;;;4.88;;
12024;SDS011;6073;53.230;10.444;2023-02-24T08:27:14;7.68;;;5.05;;
12024;SDS011;6073;53.230;10.444;2023-02-24T08:29:56;8.40;;;4.90;;
12024;SDS011;6073;53.230;10.444;2023-02-24T08:32:34;9.75;;;4.88;;
12024;SDS011;6073;53.230;10.444;2023-02-24T08:37:39;6.00;;;4.22;;
12024;SDS011;6073;53.230;10.444;2023-02-24T08:40:20;5.20;;;4.68;;
12024;SDS011;6073;53.230;10.444;2023-02-24T08:43:05;7.40;;;4.90;;
12024;SDS011;6073;53.230;10.444;2023-02-24T08:45:50;5.78;;;4.60;;
12024;SDS011;6073;53.230;10.444;2023-02-24T08:48:24;8.07;;;4.70;;
12024;SDS011;6073;53.230;10.444;2023-02-24T08:50:57;7.60;;;5.38;;
12024;SDS011;6073;53.230;10.444;2023-02-24T08:53:25;6.18;;;4.88;;
12024;SDS011;6073;53.230;10.444;2023-02-24T08:55:55;5.97;;;4.63;;
12024;SDS011;6073;53.230;10.444;2023-02-24T08:58:23;7.30;;;4.38;;
12024;SDS011;6073;53.230;10.444;2023-02-24T09:00:57;5.88;;;4.38;;
12024;SDS011;6073;53.230;10.444;2023-02-24T09:03:24;6.97;;;4.20;;
12024;SDS011;6073;53.230;10.444;2023-02-24T09:06:04;3.85;;;3.30;;
12024;SDS011;6073;53.230;10.444;2023-02-24T09:08:33;4.25;;;3.70;;
12024;SDS011;6073;53.230;10.444;2023-02-24T09:11:03;6.05;;;3.65;;
12024;SDS011;6073;53.230;10.444;2023-02-24T09:13:41;4.57;;;3.30;;
12024;SDS011;6073;53.230;10.444;2023-02-24T09:16:22;5.10;;;3.30;;
12024;SDS011;6073;53.230;10.444;2023-02-24T09:18:49;4.82;;;3.33;;
12024;SDS011;6073;53.230;10.444;2023-02-24T09:21:35;5.38;;;3.03;;
12024;SDS011;6073;53.230;10.444;2023-02-24T09:24:16;4.38;;;2.80;;
12024;SDS011;6073;53.230;10.444;2023-02-24T09:26:51;3.03;;;2.67;;
12024;SDS011;6073;53.230;10.444;2023-02-24T09:29:22;5.35;;;2.88;;
12024;SDS011;6073;53.230;10.444;2023-02-24T09:31:58;4.20;;;2.92;;
12024;SDS011;6073;53.230;10.444;2023-02-24T09:34:32;4.90;;;3.05;;
12024;SDS011;6073;53.230;10.444;2023-02-24T09:36:59;5.15;;;2.78;;
12024;SDS011;6073;53.230;10.444;2023-02-24T09:39:31;3.65;;;2.47;;
12024;SDS011;6073;53.230;10.444;2023-02-24T09:42:29;4.18;;;2.40;;
12024;SDS011;6073;53.230;10.444;2023-02-24T09:45:12;4.80;;;2.33;;
12024;SDS011;6073;53.230;10.444;2023-02-24T09:47:57;3.75;;;2.30;;
12024;SDS011;6073;53.230;10.444;2023-02-24T09:50:34;2.58;;;1.77;;
12024;SDS011;6073;53.230;10.444;2023-02-24T09:53:13;2.83;;;2.10;;
12024;SDS011;6073;53.230;10.444;2023-02-24T10:01:44;3.83;;;2.00;;
12024;SDS011;6073;53.230;10.444;2023-02-24T10:06:56;2.08;;;1.63;;
12024;SDS011;6073;53.230;10.444;2023-02-24T10:09:30;2.13;;;1.85;;
12024;SDS011;6073;53.230;10.444;2023-02-24T10:12:01;2.42;;;1.70;;
12024;SDS011;6073;53.230;10.444;2023-02-24T10:14:40;1.70;;;1.58;;
12024;SDS011;6073;53.230;10.444;2023-02-24T10:17:21;1.67;;;1.55;;
12024;SDS011;6073;53.230;10.444;2023-02-24T10:20:07;2.20;;;1.90;;
12024;SDS011;6073;53.230;10.444;2023-02-24T10:22:54;2.75;;;2.00;;
12024;SDS011;6073;53.230;10.444;2023-02-24T10:25:44;2.40;;;1.77;;
12024;SDS011;6073;53.230;10.444;2023-02-24T10:34:07;2.22;;;1.90;;
12024;SDS011;6073;53.230;10.444;2023-02-24T10:36:35;2.10;;;1.90;;
12024;SDS011;6073;53.230;10.444;2023-02-24T10:39:23;2.20;;;2.00;;
12024;SDS011;6073;53.230;10.444;2023-02-24T10:41:57;1.63;;;1.52;;
12024;SDS011;6073;53.230;10.444;2023-02-24T10:44:39;2.30;;;1.83;;
12024;SDS011;6073;53.230;10.444;2023-02-24T10:47:16;2.97;;;1.58;;
12024;SDS011;6073;53.230;10.444;2023-02-24T10:49:55;4.47;;;1.90;;
12024;SDS011;6073;53.230;10.444;2023-02-24T10:52:33;1.67;;;1.58;;
12024;SDS011;6073;53.230;10.444;2023-02-24T10:57:52;3.38;;;1.90;;
12024;SDS011;6073;53.230;10.444;2023-02-24T11:00:35;7.13;;;1.85;;
12024;SDS011;6073;53.230;10.444;2023-02-24T11:03:21;1.80;;;1.70;;
12024;SDS011;6073;53.230;10.444;2023-02-24T11:06:23;2.40;;;2.10;;
12024;SDS011;6073;53.230;10.444;2023-02-24T11:09:04;3.25;;;2.28;;
12024;SDS011;6073;53.230;10.444;2023-02-24T11:12:15;3.65;;;2.35;;
12024;SDS011;6073;53.230;10.444;2023-02-24T11:15:16;4.15;;;2.45;;
12024;SDS011;6073;53.230;10.444;2023-02-24T11:18:24;3.53;;;2.40;;
12024;SDS011;6073;53.230;10.444;2023-02-24T11:20:58;2.65;;;2.28;;
12024;SDS011;6073;53.230;10.444;2023-02-24T11:26:01;2.80;;;2.60;;
12024;SDS011;6073;53.230;10.444;2023-02-24T11:31:58;2.95;;;2.60;;
12024;SDS011;6073;53.230;10.444;2023-02-24T11:42:56;3.97;;;2.55;;
12024;SDS011;6073;53.230;10.444;2023-02-24T11:45:38;3.28;;;2.78;;
12024;SDS011;6073;53.230;10.444;2023-02-24T11:48:21;3.05;;;2.42;;
12024;SDS011;6073;53.230;10.444;2023-02-24T11:50:57;4.72;;;2.85;;
12024;SDS011;6073;53.230;10.444;2023-02-24T11:53:36;3.17;;;2.70;;
12024;SDS011;6073;53.230;10.444;2023-02-24T11:56:27;2.38;;;2.17;;
12024;SDS011;6073;53.230;10.444;2023-02-24T12:01:28;6.18;;;2.80;;
12024;SDS011;6073;53.230;10.444;2023-02-24T12:07:04;5.38;;;3.40;;
12024;SDS011;6073;53.230;10.444;2023-02-24T12:09:45;3.38;;;3.08;;
12024;SDS011;6073;53.230;10.444;2023-02-24T12:15:37;4.15;;;3.28;;
12024;SDS011;6073;53.230;10.444;2023-02-24T12:18:30;3.97;;;3.47;;
12024;SDS011;6073;53.230;10.444;2023-02-24T12:21:12;4.15;;;3.67;;
12024;SDS011;6073;53.230;10.444;2023-02-24T12:23:42;4.03;;;3.65;;
12024;SDS011;6073;53.230;10.444;2023-02-24T12:26:21;4.45;;;4.05;;
12024;SDS011;6073;53.230;10.444;2023-02-24T12:37:59;6.65;;;4.32;;
12024;SDS011;6073;53.230;10.444;2023-02-24T12:40:55;6.80;;;4.97;;
12024;SDS011;6073;53.230;10.444;2023-02-24T12:43:45;6.22;;;4.57;;
12024;SDS011;6073;53.230;10.444;2023-02-24T12:46:25;5.00;;;4.05;;
12024;SDS011;6073;53.230;10.444;2023-02-24T12:48:59;5.32;;;4.28;;
12024;SDS011;6073;53.230;10.444;2023-02-24T12:59:19;6.22;;;5.13;;
12024;SDS011;6073;53.230;10.444;2023-02-24T13:01:56;8.55;;;4.95;;
12024;SDS011;6073;53.230;10.444;2023-02-24T13:04:48;6.53;;;4.90;;
12024;SDS011;6073;53.230;10.444;2023-02-24T13:12:42;6.65;;;4.78;;
12024;SDS011;6073;53.230;10.444;2023-02-24T13:15:26;4.43;;;4.03;;
12024;SDS011;6073;53.230;10.444;2023-02-24T13:17:55;4.72;;;4.18;;
12024;SDS011;6073;53.230;10.444;2023-02-24T13:20:25;5.18;;;4.40;;
12024;SDS011;6073;53.230;10.444;2023-02-24T13:22:59;5.03;;;4.38;;
12024;SDS011;6073;53.230;10.444;2023-02-24T13:25:32;5.65;;;4.38;;
12024;SDS011;6073;53.230;10.444;2023-02-24T13:28:05;8.95;;;4.32;;
12024;SDS011;6073;53.230;10.444;2023-02-24T13:30:56;5.47;;;4.35;;
12024;SDS011;6073;53.230;10.444;2023-02-24T13:33:26;4.68;;;4.20;;
12024;SDS011;6073;53.230;10.444;2023-02-24T13:36:05;5.05;;;4.00;;
12024;SDS011;6073;53.230;10.444;2023-02-24T13:38:48;5.00;;;4.38;;
12024;SDS011;6073;53.230;10.444;2023-02-24T13:44:19;5.57;;;4.22;;
12024;SDS011;6073;53.230;10.444;2023-02-24T13:49:30;7.47;;;4.90;;
12024;SDS011;6073;53.230;10.444;2023-02-24T13:52:03;5.45;;;4.35;;
12024;SDS011;6073;53.230;10.444;2023-02-24T14:00:51;7.93;;;4.00;;
12024;SDS011;6073;53.230;10.444;2023-02-24T14:03:28;4.82;;;3.63;;
12024;SDS011;6073;53.230;10.444;2023-02-24T14:05:54;5.55;;;4.05;;
12024;SDS011;6073;53.230;10.444;2023-02-24T14:08:30;5.65;;;3.90;;
12024;SDS011;6073;53.230;10.444;2023-02-24T14:11:05;6.13;;;3.70;;
12024;SDS011;6073;53.230;10.444;2023-02-24T14:13:34;5.50;;;3.67;;
12024;SDS011;6073;53.230;10.444;2023-02-24T14:16:03;4.38;;;3.13;;
12024;SDS011;6073;53.230;10.444;2023-02-24T14:18:32;5.00;;;3.40;;
12024;SDS011;6073;53.230;10.444;2023-02-24T14:20:58;3.72;;;3.30;;
12024;SDS011;6073;53.230;10.444;2023-02-24T14:23:30;4.35;;;3.42;;
12024;SDS011;6073;53.230;10.444;2023-02-24T14:25:58;5.50;;;3.40;;
12024;SDS011;6073;53.230;10.444;2023-02-24T14:28:35;4.40;;;3.88;;
12024;SDS011;6073;53.230;10.444;2023-02-24T14:31:11;4.28;;;3.58;;
12024;SDS011;6073;53.230;10.444;2023-02-24T14:33:38;5.13;;;4.03;;
12024;SDS011;6073;53.230;10.444;2023-02-24T14:36:06;5.68;;;4.30;;
12024;SDS011;6073;53.230;10.444;2023-02-24T14:38:40;5.60;;;3.85;;
12024;SDS011;6073;53.230;10.444;2023-02-24T14:41:21;6.53;;;4.07;;
12024;SDS011;6073;53.230;10.444;2023-02-24T14:43:48;5.63;;;4.65;;
12024;SDS011;6073;53.230;10.444;2023-02-24T14:46:15;7.30;;;4.72;;
12024;SDS011;6073;53.230;10.444;2023-02-24T14:48:41;5.53;;;4.38;;
12024;SDS011;6073;53.230;10.444;2023-02-24T14:51:09;6.00;;;4.65;;
12024;SDS011;6073;53.230;10.444;2023-02-24T14:53:39;9.20;;;4.85;;
12024;SDS011;6073;53.230;10.444;2023-02-24T14:56:10;8.68;;;4.80;;
12024;SDS011;6073;53.230;10.444;2023-02-24T14:58:41;7.30;;;5.32;;
12024;SDS011;6073;53.230;10.444;2023-02-24T15:03:45;8.00;;;4.75;;
12024;SDS011;6073;53.230;10.444;2023-02-24T15:06:22;7.97;;;4.90;;
12024;SDS011;6073;53.230;10.444;2023-02-24T15:11:24;7.07;;;5.10;;
12024;SDS011;6073;53.230;10.444;2023-02-24T15:14:03;9.70;;;5.82;;
12024;SDS011;6073;53.230;10.444;2023-02-24T15:16:35;13.27;;;6.18;;
12024;SDS011;6073;53.230;10.444;2023-02-24T15:19:23;9.68;;;5.72;;
12024;SDS011;6073;53.230;10.444;2023-02-24T15:21:56;9.02;;;5.68;;
12024;SDS011;6073;53.230;10.444;2023-02-24T15:24:32;7.35;;;5.05;;
12024;SDS011;6073;53.230;10.444;2023-02-24T15:27:17;7.45;;;5.57;;
12024;SDS011;6073;53.230;10.444;2023-02-24T15:29:55;8.70;;;5.57;;
12024;SDS011;6073;53.230;10.444;2023-02-24T15:32:24;9.27;;;5.53;;
12024;SDS011;6073;53.230;10.444;2023-02-24T15:34:51;12.45;;;5.63;;
12024;SDS011;6073;53.230;10.444;2023-02-24T15:37:39;8.43;;;6.05;;
12024;SDS011;6073;53.230;10.444;2023-02-24T15:40:15;8.15;;;5.88;;
12024;SDS011;6073;53.230;10.444;2023-02-24T15:42:51;9.55;;;6.20;;
12024;SDS011;6073;53.230;10.444;2023-02-24T15:45:22;9.70;;;6.32;;
12024;SDS011;6073;53.230;10.444;2023-02-24T15:47:52;6.93;;;5.35;;
12024;SDS011;6073;53.230;10.444;2023-02-24T15:50:19;7.28;;;5.78;;
12024;SDS011;6073;53.230;10.444;2023-02-24T15:52:45;8.15;;;5.28;;
12024;SDS011;6073;53.230;10.444;2023-02-24T15:55:13;11.32;;;6.40;;
12024;SDS011;6073;53.230;10.444;2023-02-24T15:57:40;8.52;;;6.57;;
12024;SDS011;6073;53.230;10.444;2023-02-24T16:00:06;10.43;;;5.68;;
12024;SDS011;6073;53.230;10.444;2023-02-24T16:02:37;7.38;;;5.22;;
12024;SDS011;6073;53.230;10.444;2023-02-24T16:05:04;10.02;;;5.63;;
12024;SDS011;6073;53.230;10.444;2023-02-24T16:07:31;8.38;;;5.47;;
12024;SDS011;6073;53.230;10.444;2023-02-24T16:09:59;8.32;;;5.82;;
12024;SDS011;6073;53.230;10.444;2023-02-24T16:12:26;6.80;;;5.70;;
12024;SDS011;6073;53.230;10.444;2023-02-24T16:15:09;5.72;;;5.20;;
12024;SDS011;6073;53.230;10.444;2023-02-24T16:17:40;11.50;;;5.85;;
12024;SDS011;6073;53.230;10.444;2023-02-24T16:20:14;9.77;;;5.80;;
12024;SDS011;6073;53.230;10.444;2023-02-24T16:22:44;9.80;;;6.10;;
12024;SDS011;6073;53.230;10.444;2023-02-24T16:25:10;9.75;;;5.15;;
12024;SDS011;6073;53.230;10.444;2023-02-24T16:27:40;11.85;;;5.05;;
12024;SDS011;6073;53.230;10.444;2023-02-24T16:30:06;9.93;;;5.40;;
12024;SDS011;6073;53.230;10.444;2023-02-24T16:32:38;8.15;;;4.88;;
12024;SDS011;6073;53.230;10.444;2023-02-24T16:35:04;9.15;;;4.70;;
12024;SDS011;6073;53.230;10.444;2023-02-24T16:37:34;11.23;;;5.18;;
12024;SDS011;6073;53.230;10.444;2023-02-24T16:40:00;9.30;;;4.53;;
12024;SDS011;6073;53.230;10.444;2023-02-24T16:42:29;10.77;;;4.13;;
12024;SDS011;6073;53.230;10.444;2023-02-24T16:44:54;8.10;;;3.30;;
12024;SDS011;6073;53.230;10.444;2023-02-24T16:47:21;8.25;;;3.65;;
12024;SDS011;6073;53.230;10.444;2023-02-24T16:49:48;8.95;;;3.70;;
12024;SDS011;6073;53.230;10.444;2023-02-24T16:52:14;9.07;;;3.60;;
12024;SDS011;6073;53.230;10.444;2023-02-24T16:54:44;6.07;;;3.92;;
12024;SDS011;6073;53.230;10.444;2023-02-24T16:57:11;11.70;;;3.95;;
12024;SDS011;6073;53.230;10.444;2023-02-24T16:59:37;5.40;;;3.78;;
12024;SDS011;6073;53.230;10.444;2023-02-24T17:02:02;5.25;;;3.10;;
12024;SDS011;6073;53.230;10.444;2023-02-24T17:04:28;8.07;;;3.17;;
12024;SDS011;6073;53.230;10.444;2023-02-24T17:06:55;10.50;;;2.80;;
12024;SDS011;6073;53.230;10.444;2023-02-24T17:09:21;5.07;;;2.40;;
12024;SDS011;6073;53.230;10.444;2023-02-24T17:11:47;6.78;;;2.28;;
12024;SDS011;6073;53.230;10.444;2023-02-24T17:14:17;10.00;;;3.97;;
12024;SDS011;6073;53.230;10.444;2023-02-24T17:16:44;8.75;;;4.65;;
12024;SDS011;6073;53.230;10.444;2023-02-24T17:19:10;9.40;;;3.00;;
12024;SDS011;6073;53.230;10.444;2023-02-24T17:21:37;5.10;;;2.10;;
12024;SDS011;6073;53.230;10.444;2023-02-24T17:24:05;5.53;;;2.88;;